sensor_id;sensor_type;location;lat;lon;timestamp;pressure;altitude;pressure_sealevel;temperature;humidity
78582;BME280;67878;46.242;5.974;2023-11-19T00:01:08;95900.75;;;20.54;49.06
78582;BME280;67878;46.242;5.974;2023-11-19T00:03:33;95894.69;;;20.53;49.06
78582;BME280;67878;46.242;5.974;2023-11-19T00:06:01;95895.63;;;20.52;48.69
78582;BME280;67878;46.242;5.974;2023-11-19T00:08:26;95902.66;;;20.52;48.72
78582;BME280;67878;46.242;5.974;2023-11-19T00:10:52;95901.03;;;20.51;49.06
78582;BME280;67878;46.242;5.974;2023-11-19T00:13:17;95892.19;;;20.52;49.18
78582;BME280;67878;46.242;5.974;2023-11-19T00:15:43;95898.41;;;20.51;49.00
78582;BME280;67878;46.242;5.974;2023-11-19T00:18:10;95890.53;;;20.51;49.20
78582;BME280;67878;46.242;5.974;2023-11-19T00:20:36;95895.78;;;20.51;49.55
78582;BME280;67878;46.242;5.974;2023-11-19T00:23:01;95884.47;;;20.50;49.14
78582;BME280;67878;46.242;5.974;2023-11-19T00:25:27;95885.44;;;20.49;49.02
78582;BME280;67878;46.242;5.974;2023-11-19T00:27:53;95875.25;;;20.46;48.98
78582;BME280;67878;46.242;5.974;2023-11-19T00:30:18;95885.59;;;20.48;48.95
78582;BME280;67878;46.242;5.974;2023-11-19T00:32:44;95883.78;;;20.48;49.15
78582;BME280;67878;46.242;5.974;2023-11-19T00:35:10;95873.31;;;20.48;49.20
78582;BME280;67878;46.242;5.974;2023-11-19T00:37:36;95868.19;;;20.47;49.01
78582;BME280;67878;46.242;5.974;2023-11-19T00:40:02;95868.19;;;20.47;49.20
78582;BME280;67878;46.242;5.974;2023-11-19T00:42:30;95857.06;;;20.45;49.04
78582;BME280;67878;46.242;5.974;2023-11-19T00:44:56;95863.94;;;20.46;49.12
78582;BME280;67878;46.242;5.974;2023-11-19T00:47:21;95858.88;;;20.44;49.11
78582;BME280;67878;46.242;5.974;2023-11-19T00:49:47;95859.16;;;20.41;49.06
78582;BME280;67878;46.242;5.974;2023-11-19T00:52:16;95859.00;;;20.43;48.95
78582;BME280;67878;46.242;5.974;2023-11-19T00:54:42;95864.09;;;20.44;49.36
78582;BME280;67878;46.242;5.974;2023-11-19T00:57:08;95865.06;;;20.43;49.44
78582;BME280;67878;46.242;5.974;2023-11-19T00:59:33;95860.00;;;20.42;49.39
78582;BME280;67878;46.242;5.974;2023-11-19T01:01:59;95864.25;;;20.43;49.34
78582;BME280;67878;46.242;5.974;2023-11-19T01:04:29;95866.06;;;20.42;49.46
78582;BME280;67878;46.242;5.974;2023-11-19T01:06:54;95869.63;;;20.41;49.34
78582;BME280;67878;46.242;5.974;2023-11-19T01:09:20;95869.63;;;20.41;49.49
78582;BME280;67878;46.242;5.974;2023-11-19T01:11:45;95877.00;;;20.37;49.24
78582;BME280;67878;46.242;5.974;2023-11-19T01:14:11;95884.72;;;20.39;49.43
78582;BME280;67878;46.242;5.974;2023-11-19T01:16:36;95875.88;;;20.40;49.36
78582;BME280;67878;46.242;5.974;2023-11-19T01:19:01;95868.31;;;20.37;49.53
78582;BME280;67878;46.242;5.974;2023-11-19T01:21:30;95879.63;;;20.37;49.66
78582;BME280;67878;46.242;5.974;2023-11-19T01:23:56;95877.00;;;20.37;49.69
78582;BME280;67878;46.242;5.974;2023-11-19T01:26:22;95870.94;;;20.37;49.25
78582;BME280;67878;46.242;5.974;2023-11-19T01:28:47;95859.63;;;20.36;49.46
78582;BME280;67878;46.242;5.974;2023-11-19T01:31:16;95865.00;;;20.35;49.20
78582;BME280;67878;46.242;5.974;2023-11-19T01:33:44;95860.75;;;20.34;49.10
78582;BME280;67878;46.242;5.974;2023-11-19T01:36:14;95852.88;;;20.34;49.25
78582;BME280;67878;46.242;5.974;2023-11-19T01:38:40;95852.06;;;20.33;49.42
78582;BME280;67878;46.242;5.974;2023-11-19T01:41:05;95851.25;;;20.33;49.03
78582;BME280;67878;46.242;5.974;2023-11-19T01:43:37;95851.38;;;20.31;48.77
78582;BME280;67878;46.242;5.974;2023-11-19T01:46:04;95843.66;;;20.30;49.24
78582;BME280;67878;46.242;5.974;2023-11-19T01:48:34;95839.25;;;20.30;49.03
78582;BME280;67878;46.242;5.974;2023-11-19T01:51:01;95841.22;;;20.28;49.08
78582;BME280;67878;46.242;5.974;2023-11-19T01:53:28;95849.75;;;20.30;49.28
78582;BME280;67878;46.242;5.974;2023-11-19T01:55:54;95841.03;;;20.30;49.37
78582;BME280;67878;46.242;5.974;2023-11-19T01:58:21;95831.53;;;20.29;49.53
78582;BME280;67878;46.242;5.974;2023-11-19T02:00:46;95837.59;;;20.29;49.76
78582;BME280;67878;46.242;5.974;2023-11-19T02:03:14;95841.88;;;20.30;49.62
78582;BME280;67878;46.242;5.974;2023-11-19T02:05:40;95835.78;;;20.30;49.63
78582;BME280;67878;46.242;5.974;2023-11-19T02:08:05;95839.25;;;20.30;49.63
78582;BME280;67878;46.242;5.974;2023-11-19T02:10:30;95842.84;;;20.29;49.69
78582;BME280;67878;46.242;5.974;2023-11-19T02:12:57;95840.22;;;20.29;49.76
78582;BME280;67878;46.242;5.974;2023-11-19T02:15:23;95848.09;;;20.29;49.80
78582;BME280;67878;46.242;5.974;2023-11-19T02:17:50;95843.84;;;20.28;49.70
78582;BME280;67878;46.242;5.974;2023-11-19T02:20:16;95841.22;;;20.28;49.79
78582;BME280;67878;46.242;5.974;2023-11-19T02:22:41;95845.63;;;20.28;49.64
78582;BME280;67878;46.242;5.974;2023-11-19T02:25:07;95849.91;;;20.29;49.31
78582;BME280;67878;46.242;5.974;2023-11-19T02:27:51;95845.31;;;20.31;48.46
78582;BME280;67878;46.242;5.974;2023-11-19T02:30:21;95845.00;;;20.34;49.35
78582;BME280;67878;46.242;5.974;2023-11-19T02:32:46;95841.56;;;20.33;49.55
78582;BME280;67878;46.242;5.974;2023-11-19T02:35:13;95843.38;;;20.33;49.30
78582;BME280;67878;46.242;5.974;2023-11-19T02:37:38;95850.09;;;20.35;49.57
78582;BME280;67878;46.242;5.974;2023-11-19T02:40:05;95848.31;;;20.36;49.76
78582;BME280;67878;46.242;5.974;2023-11-19T02:42:30;95833.41;;;20.36;49.53
78582;BME280;67878;46.242;5.974;2023-11-19T02:44:56;95828.16;;;20.36;49.50
78582;BME280;67878;46.242;5.974;2023-11-19T02:47:21;95820.28;;;20.36;49.48
78582;BME280;67878;46.242;5.974;2023-11-19T02:49:49;95816.84;;;20.36;49.71
78582;BME280;67878;46.242;5.974;2023-11-19T02:52:15;95810.75;;;20.35;49.54
78582;BME280;67878;46.242;5.974;2023-11-19T02:54:40;95816.97;;;20.34;49.36
78582;BME280;67878;46.242;5.974;2023-11-19T02:57:07;95813.38;;;20.35;49.57
78582;BME280;67878;46.242;5.974;2023-11-19T02:59:37;95816.97;;;20.34;49.48
78582;BME280;67878;46.242;5.974;2023-11-19T03:02:07;95810.09;;;20.33;49.66
78582;BME280;67878;46.242;5.974;2023-11-19T03:04:37;95811.91;;;20.33;49.75
78582;BME280;67878;46.242;5.974;2023-11-19T03:07:05;95815.34;;;20.33;49.80
78582;BME280;67878;46.242;5.974;2023-11-19T03:09:32;95816.31;;;20.32;49.83
78582;BME280;67878;46.242;5.974;2023-11-19T03:11:59;95813.69;;;20.32;49.87
78582;BME280;67878;46.242;5.974;2023-11-19T03:14:25;95817.16;;;20.33;49.66
78582;BME280;67878;46.242;5.974;2023-11-19T03:16:51;95809.28;;;20.33;49.90
78582;BME280;67878;46.242;5.974;2023-11-19T03:19:16;95813.69;;;20.32;49.83
78582;BME280;67878;46.242;5.974;2023-11-19T03:21:41;95814.53;;;20.33;49.75
78582;BME280;67878;46.242;5.974;2023-11-19T03:24:07;95809.44;;;20.31;49.83
78582;BME280;67878;46.242;5.974;2023-11-19T03:26:33;95811.06;;;20.32;49.84
78582;BME280;67878;46.242;5.974;2023-11-19T03:28:59;95809.28;;;20.33;50.02
78582;BME280;67878;46.242;5.974;2023-11-19T03:31:24;95809.44;;;20.31;49.86
78582;BME280;67878;46.242;5.974;2023-11-19T03:33:50;95799.91;;;20.30;49.77
78582;BME280;67878;46.242;5.974;2023-11-19T03:36:15;95799.91;;;20.30;49.80
78582;BME280;67878;46.242;5.974;2023-11-19T03:38:41;95804.19;;;20.31;49.98
78582;BME280;67878;46.242;5.974;2023-11-19T03:41:10;95799.91;;;20.30;49.80
78582;BME280;67878;46.242;5.974;2023-11-19T03:43:36;95793.81;;;20.30;49.88
78582;BME280;67878;46.242;5.974;2023-11-19T03:46:02;95790.38;;;20.29;49.82
78582;BME280;67878;46.242;5.974;2023-11-19T03:48:27;95784.19;;;20.30;50.09
78582;BME280;67878;46.242;5.974;2023-11-19T03:50:53;95781.56;;;20.30;50.06
78582;BME280;67878;46.242;5.974;2023-11-19T03:53:18;95779.75;;;20.31;50.02
78582;BME280;67878;46.242;5.974;2023-11-19T03:55:44;95776.97;;;20.32;50.06
78582;BME280;67878;46.242;5.974;2023-11-19T03:58:09;95784.81;;;20.32;49.90
78582;BME280;67878;46.242;5.974;2023-11-19T04:00:34;95792.69;;;20.32;49.62
78582;BME280;67878;46.242;5.974;2023-11-19T04:03:00;95781.25;;;20.33;49.90
78582;BME280;67878;46.242;5.974;2023-11-19T04:05:25;95784.81;;;20.32;49.68
78582;BME280;67878;46.242;5.974;2023-11-19T04:07:51;95776.97;;;20.32;50.00
78582;BME280;67878;46.242;5.974;2023-11-19T04:10:16;95776.97;;;20.32;49.73
78582;BME280;67878;46.242;5.974;2023-11-19T04:12:42;95775.00;;;20.34;49.56
78582;BME280;67878;46.242;5.974;2023-11-19T04:15:08;95776.50;;;20.37;49.78
78582;BME280;67878;46.242;5.974;2023-11-19T04:17:34;95774.56;;;20.39;49.83
78582;BME280;67878;46.242;5.974;2023-11-19T04:20:00;95784.72;;;20.42;49.62
78582;BME280;67878;46.242;5.974;2023-11-19T04:22:26;95780.31;;;20.43;49.52
78582;BME280;67878;46.242;5.974;2023-11-19T04:24:51;95786.22;;;20.45;49.32
78582;BME280;67878;46.242;5.974;2023-11-19T04:27:17;95782.78;;;20.44;49.29
78582;BME280;67878;46.242;5.974;2023-11-19T04:29:43;95786.38;;;20.43;49.42
78582;BME280;67878;46.242;5.974;2023-11-19T04:32:09;95785.53;;;20.43;49.52
78582;BME280;67878;46.242;5.974;2023-11-19T04:34:34;95782.09;;;20.42;49.24
78582;BME280;67878;46.242;5.974;2023-11-19T04:36:59;95777.53;;;20.44;49.53
78582;BME280;67878;46.242;5.974;2023-11-19T04:39:28;95785.22;;;20.46;49.47
78582;BME280;67878;46.242;5.974;2023-11-19T04:41:54;95775.56;;;20.46;49.48
78582;BME280;67878;46.242;5.974;2023-11-19T04:44:20;95783.44;;;20.46;49.56
78582;BME280;67878;46.242;5.974;2023-11-19T04:46:45;95783.59;;;20.45;49.42
78582;BME280;67878;46.242;5.974;2023-11-19T04:49:11;95774.06;;;20.44;49.48
78582;BME280;67878;46.242;5.974;2023-11-19T04:51:41;95780.31;;;20.43;49.55
78582;BME280;67878;46.242;5.974;2023-11-19T04:54:08;95778.66;;;20.42;49.68
78582;BME280;67878;46.242;5.974;2023-11-19T04:56:34;95779.63;;;20.41;49.53
78582;BME280;67878;46.242;5.974;2023-11-19T04:59:00;95770.13;;;20.40;49.75
78582;BME280;67878;46.242;5.974;2023-11-19T05:01:25;95772.75;;;20.40;49.57
78582;BME280;67878;46.242;5.974;2023-11-19T05:03:51;95773.75;;;20.38;49.84
78582;BME280;67878;46.242;5.974;2023-11-19T05:06:16;95771.25;;;20.37;49.87
78582;BME280;67878;46.242;5.974;2023-11-19T05:08:41;95774.03;;;20.35;49.83
78582;BME280;67878;46.242;5.974;2023-11-19T05:11:07;95777.50;;;20.36;49.99
78582;BME280;67878;46.242;5.974;2023-11-19T05:13:32;95774.88;;;20.36;49.83
78582;BME280;67878;46.242;5.974;2023-11-19T05:15:58;95778.44;;;20.35;49.59
78582;BME280;67878;46.242;5.974;2023-11-19T05:18:24;95773.38;;;20.33;49.73
78582;BME280;67878;46.242;5.974;2023-11-19T05:20:50;95776.00;;;20.33;49.69
78582;BME280;67878;46.242;5.974;2023-11-19T05:23:15;95768.13;;;20.33;49.87
78582;BME280;67878;46.242;5.974;2023-11-19T05:25:40;95766.47;;;20.32;49.84
78582;BME280;67878;46.242;5.974;2023-11-19T05:28:06;95766.47;;;20.32;49.86
78582;BME280;67878;46.242;5.974;2023-11-19T05:30:31;95762.22;;;20.31;50.02
78582;BME280;67878;46.242;5.974;2023-11-19T05:32:56;95758.91;;;20.29;50.01
78582;BME280;67878;46.242;5.974;2023-11-19T05:35:22;95756.16;;;20.31;49.95
78582;BME280;67878;46.242;5.974;2023-11-19T05:37:47;95755.34;;;20.30;50.00
78582;BME280;67878;46.242;5.974;2023-11-19T05:40:13;95758.78;;;20.31;50.14
78582;BME280;67878;46.242;5.974;2023-11-19T05:42:42;95759.72;;;20.30;49.95
78582;BME280;67878;46.242;5.974;2023-11-19T05:45:12;95746.78;;;20.28;50.17
78582;BME280;67878;46.242;5.974;2023-11-19T05:47:38;95750.22;;;20.29;49.96
78582;BME280;67878;46.242;5.974;2023-11-19T05:50:04;95758.09;;;20.29;49.95
78582;BME280;67878;46.242;5.974;2023-11-19T05:52:31;95751.22;;;20.28;50.00
78582;BME280;67878;46.242;5.974;2023-11-19T05:55:00;95751.22;;;20.28;49.91
78582;BME280;67878;46.242;5.974;2023-11-19T05:57:27;95753.03;;;20.27;50.00
78582;BME280;67878;46.242;5.974;2023-11-19T05:59:54;95744.31;;;20.27;50.35
78582;BME280;67878;46.242;5.974;2023-11-19T06:02:19;95742.34;;;20.29;50.21
78582;BME280;67878;46.242;5.974;2023-11-19T06:04:45;95743.19;;;20.29;50.03
78582;BME280;67878;46.242;5.974;2023-11-19T06:07:13;95745.81;;;20.29;49.95
78582;BME280;67878;46.242;5.974;2023-11-19T06:09:39;95733.50;;;20.30;49.75
78582;BME280;67878;46.242;5.974;2023-11-19T06:12:05;95740.41;;;20.31;49.58
78582;BME280;67878;46.242;5.974;2023-11-19T06:14:32;95737.78;;;20.31;49.70
78582;BME280;67878;46.242;5.974;2023-11-19T06:16:58;95740.25;;;20.32;49.44
78582;BME280;67878;46.242;5.974;2023-11-19T06:19:23;95740.25;;;20.32;49.54
78582;BME280;67878;46.242;5.974;2023-11-19T06:21:50;95733.34;;;20.31;49.51
78582;BME280;67878;46.242;5.974;2023-11-19T06:24:16;95735.00;;;20.32;49.35
78582;BME280;67878;46.242;5.974;2023-11-19T06:26:41;95736.66;;;20.33;49.32
78582;BME280;67878;46.242;5.974;2023-11-19T06:29:06;95731.41;;;20.33;49.33
78582;BME280;67878;46.242;5.974;2023-11-19T06:31:32;95735.84;;;20.33;49.34
78582;BME280;67878;46.242;5.974;2023-11-19T06:33:57;95736.66;;;20.33;49.22
78582;BME280;67878;46.242;5.974;2023-11-19T06:36:23;95740.09;;;20.34;49.22
78582;BME280;67878;46.242;5.974;2023-11-19T06:38:48;95738.28;;;20.34;48.99
78582;BME280;67878;46.242;5.974;2023-11-19T06:41:16;95741.91;;;20.33;48.95
78582;BME280;67878;46.242;5.974;2023-11-19T06:43:42;95738.28;;;20.34;48.62
78582;BME280;67878;46.242;5.974;2023-11-19T06:46:18;95735.66;;;20.34;48.84
78582;BME280;67878;46.242;5.974;2023-11-19T06:48:44;95726.97;;;20.34;48.88
78582;BME280;67878;46.242;5.974;2023-11-19T06:51:11;95734.84;;;20.34;48.95
78582;BME280;67878;46.242;5.974;2023-11-19T06:53:36;95743.53;;;20.34;49.13
78582;BME280;67878;46.242;5.974;2023-11-19T06:56:02;95743.53;;;20.34;49.01
78582;BME280;67878;46.242;5.974;2023-11-19T06:58:35;95755.66;;;20.35;48.91
78582;BME280;67878;46.242;5.974;2023-11-19T07:01:00;95745.34;;;20.34;49.03
78582;BME280;67878;46.242;5.974;2023-11-19T07:03:26;95748.63;;;20.36;49.06
78582;BME280;67878;46.242;5.974;2023-11-19T07:05:51;95741.59;;;20.36;48.98
78582;BME280;67878;46.242;5.974;2023-11-19T07:08:17;95745.84;;;20.37;49.06
78582;BME280;67878;46.242;5.974;2023-11-19T07:10:42;95747.50;;;20.38;49.03
78582;BME280;67878;46.242;5.974;2023-11-19T07:13:07;95746.34;;;20.41;49.11
78582;BME280;67878;46.242;5.974;2023-11-19T07:15:33;95749.63;;;20.43;48.93
78582;BME280;67878;46.242;5.974;2023-11-19T07:17:58;95748.50;;;20.46;48.76
78582;BME280;67878;46.242;5.974;2023-11-19T07:20:25;95756.22;;;20.47;48.90
78582;BME280;67878;46.242;5.974;2023-11-19T07:22:52;95755.09;;;20.50;48.84
78582;BME280;67878;46.242;5.974;2023-11-19T07:25:17;95760.97;;;20.52;48.72
78582;BME280;67878;46.242;5.974;2023-11-19T07:27:43;95760.06;;;20.53;48.56
78582;BME280;67878;46.242;5.974;2023-11-19T07:30:08;95749.38;;;20.54;49.04
78582;BME280;67878;46.242;5.974;2023-11-19T07:32:34;95748.56;;;20.54;48.63
78582;BME280;67878;46.242;5.974;2023-11-19T07:34:59;95754.91;;;20.51;48.55
78582;BME280;67878;46.242;5.974;2023-11-19T07:37:25;95751.47;;;20.51;48.53
78582;BME280;67878;46.242;5.974;2023-11-19T07:39:50;95755.09;;;20.50;48.66
78582;BME280;67878;46.242;5.974;2023-11-19T07:42:16;95753.09;;;20.52;48.30
78582;BME280;67878;46.242;5.974;2023-11-19T07:44:41;95754.63;;;20.54;48.84
78582;BME280;67878;46.242;5.974;2023-11-19T07:47:07;95757.75;;;20.58;48.95
78582;BME280;67878;46.242;5.974;2023-11-19T07:49:32;95762.84;;;20.59;48.68
78582;BME280;67878;46.242;5.974;2023-11-19T07:51:58;95772.88;;;20.64;48.63
78582;BME280;67878;46.242;5.974;2023-11-19T07:54:23;95775.34;;;20.66;48.70
78582;BME280;67878;46.242;5.974;2023-11-19T07:56:49;95764.69;;;20.67;48.74
78582;BME280;67878;46.242;5.974;2023-11-19T07:59:16;95766.50;;;20.67;48.59
78582;BME280;67878;46.242;5.974;2023-11-19T08:01:41;95766.00;;;20.71;48.80
78582;BME280;67878;46.242;5.974;2023-11-19T08:04:07;95778.19;;;20.72;48.78
78582;BME280;67878;46.242;5.974;2023-11-19T08:06:33;95788.19;;;20.77;48.55
78582;BME280;67878;46.242;5.974;2023-11-19T08:08:58;95789.00;;;20.77;48.46
78582;BME280;67878;46.242;5.974;2023-11-19T08:11:24;95790.47;;;20.80;48.66
78582;BME280;67878;46.242;5.974;2023-11-19T08:13:50;95785.09;;;20.81;48.60
78582;BME280;67878;46.242;5.974;2023-11-19T08:16:15;95781.47;;;20.82;48.70
78582;BME280;67878;46.242;5.974;2023-11-19T08:18:42;95767.38;;;20.84;48.43
78582;BME280;67878;46.242;5.974;2023-11-19T08:21:08;95775.91;;;20.86;48.40
78582;BME280;67878;46.242;5.974;2023-11-19T08:23:34;95780.19;;;20.87;48.30
78582;BME280;67878;46.242;5.974;2023-11-19T08:25:59;95781.69;;;20.89;48.51
78582;BME280;67878;46.242;5.974;2023-11-19T08:28:25;95770.50;;;20.87;48.42
78582;BME280;67878;46.242;5.974;2023-11-19T08:30:50;95772.94;;;20.89;48.29
78582;BME280;67878;46.242;5.974;2023-11-19T08:33:16;95783.63;;;20.87;48.40
78582;BME280;67878;46.242;5.974;2023-11-19T08:35:42;95766.06;;;20.88;48.19
78582;BME280;67878;46.242;5.974;2023-11-19T08:38:07;95764.44;;;20.87;48.14
78582;BME280;67878;46.242;5.974;2023-11-19T08:40:33;95773.28;;;20.86;48.26
78582;BME280;67878;46.242;5.974;2023-11-19T08:42:58;95771.47;;;20.86;48.25
78582;BME280;67878;46.242;5.974;2023-11-19T08:45:24;95787.06;;;20.88;47.99
78582;BME280;67878;46.242;5.974;2023-11-19T08:47:49;95782.50;;;20.90;48.42
78582;BME280;67878;46.242;5.974;2023-11-19T08:50:15;95797.25;;;20.91;48.20
78582;BME280;67878;46.242;5.974;2023-11-19T08:52:41;95806.94;;;20.90;48.30
78582;BME280;67878;46.242;5.974;2023-11-19T08:55:06;95789.38;;;20.91;48.16
78582;BME280;67878;46.242;5.974;2023-11-19T08:57:32;95788.56;;;20.90;48.04
78582;BME280;67878;46.242;5.974;2023-11-19T09:00:01;95802.69;;;20.89;48.05
78582;BME280;67878;46.242;5.974;2023-11-19T09:02:32;95793.00;;;20.90;47.74
78582;BME280;67878;46.242;5.974;2023-11-19T09:04:59;95782.63;;;20.88;47.97
78582;BME280;67878;46.242;5.974;2023-11-19T09:07:24;95784.31;;;20.89;47.83
78582;BME280;67878;46.242;5.974;2023-11-19T09:09:49;95787.06;;;20.88;47.85
78582;BME280;67878;46.242;5.974;2023-11-19T09:12:15;95775.56;;;20.89;47.72
78582;BME280;67878;46.242;5.974;2023-11-19T09:14:40;95776.44;;;20.89;47.89
78582;BME280;67878;46.242;5.974;2023-11-19T09:17:07;95781.69;;;20.89;47.70
78582;BME280;67878;46.242;5.974;2023-11-19T09:19:32;95779.88;;;20.90;47.84
78582;BME280;67878;46.242;5.974;2023-11-19T09:21:58;95790.38;;;20.90;47.88
78582;BME280;67878;46.242;5.974;2023-11-19T09:24:23;95789.38;;;20.91;47.66
78582;BME280;67878;46.242;5.974;2023-11-19T09:26:49;95795.44;;;20.91;47.91
78582;BME280;67878;46.242;5.974;2023-11-19T09:29:14;95792.00;;;20.91;47.87
78582;BME280;67878;46.242;5.974;2023-11-19T09:31:41;95799.88;;;20.91;47.72
78582;BME280;67878;46.242;5.974;2023-11-19T09:34:07;95799.88;;;20.91;47.89
78582;BME280;67878;46.242;5.974;2023-11-19T09:36:33;95802.50;;;20.91;47.90
78582;BME280;67878;46.242;5.974;2023-11-19T09:38:58;95799.88;;;20.91;47.75
78582;BME280;67878;46.242;5.974;2023-11-19T09:41:25;95798.06;;;20.91;47.82
78582;BME280;67878;46.242;5.974;2023-11-19T09:43:53;95805.13;;;20.91;47.78
78582;BME280;67878;46.242;5.974;2023-11-19T09:46:19;95798.25;;;20.90;48.05
78582;BME280;67878;46.242;5.974;2023-11-19T09:48:45;95799.88;;;20.91;48.15
78582;BME280;67878;46.242;5.974;2023-11-19T09:51:10;95798.88;;;20.92;48.15
78582;BME280;67878;46.242;5.974;2023-11-19T09:53:37;95794.47;;;20.92;48.28
78582;BME280;67878;46.242;5.974;2023-11-19T09:56:04;95785.59;;;20.93;48.22
78582;BME280;67878;46.242;5.974;2023-11-19T09:58:30;95800.38;;;20.94;48.30
78582;BME280;67878;46.242;5.974;2023-11-19T10:00:57;95797.75;;;20.94;48.20
78582;BME280;67878;46.242;5.974;2023-11-19T10:03:25;95801.22;;;20.95;48.25
78582;BME280;67878;46.242;5.974;2023-11-19T10:05:52;95792.50;;;20.94;48.23
78582;BME280;67878;46.242;5.974;2023-11-19T10:08:19;95802.03;;;20.95;48.07
78582;BME280;67878;46.242;5.974;2023-11-19T10:10:44;95803.84;;;20.95;48.04
78582;BME280;67878;46.242;5.974;2023-11-19T10:13:10;95792.34;;;20.96;48.15
78582;BME280;67878;46.242;5.974;2023-11-19T10:15:37;95789.53;;;20.97;48.29
78582;BME280;67878;46.242;5.974;2023-11-19T10:18:03;95787.78;;;20.98;48.10
78582;BME280;67878;46.242;5.974;2023-11-19T10:20:40;95790.22;;;20.99;48.01
78582;BME280;67878;46.242;5.974;2023-11-19T10:23:06;95784.97;;;20.99;48.23
78582;BME280;67878;46.242;5.974;2023-11-19T10:25:33;95785.78;;;21.00;48.21
78582;BME280;67878;46.242;5.974;2023-11-19T10:28:00;95794.47;;;21.00;48.17
78582;BME280;67878;46.242;5.974;2023-11-19T10:30:29;95795.31;;;21.01;48.24
78582;BME280;67878;46.242;5.974;2023-11-19T10:33:05;95783.97;;;21.00;48.00
78582;BME280;67878;46.242;5.974;2023-11-19T10:35:35;95789.06;;;21.02;48.07
78582;BME280;67878;46.242;5.974;2023-11-19T10:38:02;95798.59;;;21.03;48.19
78582;BME280;67878;46.242;5.974;2023-11-19T10:40:38;95793.34;;;21.03;48.26
78582;BME280;67878;46.242;5.974;2023-11-19T10:43:07;95797.63;;;21.04;48.41
78582;BME280;67878;46.242;5.974;2023-11-19T10:45:33;95793.19;;;21.04;48.42
78582;BME280;67878;46.242;5.974;2023-11-19T10:47:59;95796.63;;;21.05;48.38
78582;BME280;67878;46.242;5.974;2023-11-19T10:50:25;95788.75;;;21.05;48.42
78582;BME280;67878;46.242;5.974;2023-11-19T10:52:55;95805.19;;;21.07;48.36
78582;BME280;67878;46.242;5.974;2023-11-19T10:55:24;95797.44;;;21.05;48.42
78582;BME280;67878;46.242;5.974;2023-11-19T10:57:51;95791.06;;;21.08;48.53
78582;BME280;67878;46.242;5.974;2023-11-19T11:00:19;95793.69;;;21.08;48.56
78582;BME280;67878;46.242;5.974;2023-11-19T11:02:49;95785.00;;;21.08;48.77
78582;BME280;67878;46.242;5.974;2023-11-19T11:05:16;95783.03;;;21.10;48.96
78582;BME280;67878;46.242;5.974;2023-11-19T11:07:44;95789.91;;;21.11;48.94
78582;BME280;67878;46.242;5.974;2023-11-19T11:10:11;95789.78;;;21.12;49.11
78582;BME280;67878;46.242;5.974;2023-11-19T11:12:38;95782.72;;;21.13;48.89
78582;BME280;67878;46.242;5.974;2023-11-19T11:15:07;95791.53;;;21.12;48.93
78582;BME280;67878;46.242;5.974;2023-11-19T11:17:39;95791.41;;;21.13;48.90
78582;BME280;67878;46.242;5.974;2023-11-19T11:20:08;95802.56;;;21.15;49.17
78582;BME280;67878;46.242;5.974;2023-11-19T11:22:44;95802.56;;;21.15;49.31
78582;BME280;67878;46.242;5.974;2023-11-19T11:25:49;95787.63;;;21.16;49.40
78582;BME280;67878;46.242;5.974;2023-11-19T11:31:44;95794.53;;;21.17;49.17
78582;BME280;67878;46.242;5.974;2023-11-19T11:34:14;95795.34;;;21.17;49.19
78582;BME280;67878;46.242;5.974;2023-11-19T11:36:57;95793.72;;;21.16;49.05
78582;BME280;67878;46.242;5.974;2023-11-19T11:39:28;95792.72;;;21.17;49.22
78582;BME280;67878;46.242;5.974;2023-11-19T11:45:10;95778.97;;;21.23;48.91
78582;BME280;67878;46.242;5.974;2023-11-19T11:50:09;95775.69;;;21.30;48.89
78582;BME280;67878;46.242;5.974;2023-11-19T11:55:24;95776.97;;;21.34;48.61
78582;BME280;67878;46.242;5.974;2023-11-19T11:57:50;95771.44;;;21.37;48.74
78582;BME280;67878;46.242;5.974;2023-11-19T12:00:42;95781.78;;;21.38;48.43
78582;BME280;67878;46.242;5.974;2023-11-19T12:03:09;95770.94;;;21.41;48.57
78582;BME280;67878;46.242;5.974;2023-11-19T12:05:44;95762.91;;;21.43;48.50
78582;BME280;67878;46.242;5.974;2023-11-19T12:08:11;95762.75;;;21.44;48.53
78582;BME280;67878;46.242;5.974;2023-11-19T12:10:46;95758.16;;;21.46;48.32
78582;BME280;67878;46.242;5.974;2023-11-19T12:13:15;95752.91;;;21.46;48.34
78582;BME280;67878;46.242;5.974;2023-11-19T12:18:28;95755.19;;;21.49;48.39
78582;BME280;67878;46.242;5.974;2023-11-19T12:20:54;95756.69;;;21.52;48.31
78582;BME280;67878;46.242;5.974;2023-11-19T12:23:20;95750.41;;;21.53;48.30
78582;BME280;67878;46.242;5.974;2023-11-19T12:25:45;95747.66;;;21.55;48.22
78582;BME280;67878;46.242;5.974;2023-11-19T12:28:14;95750.28;;;21.55;48.16
78582;BME280;67878;46.242;5.974;2023-11-19T12:30:42;95752.72;;;21.56;48.31
78582;BME280;67878;46.242;5.974;2023-11-19T12:33:08;95747.31;;;21.58;48.31
78582;BME280;67878;46.242;5.974;2023-11-19T12:35:39;95747.97;;;21.60;48.26
78582;BME280;67878;46.242;5.974;2023-11-19T12:38:04;95748.78;;;21.60;48.26
78582;BME280;67878;46.242;5.974;2023-11-19T12:40:30;95749.44;;;21.62;48.24
78582;BME280;67878;46.242;5.974;2023-11-19T12:42:55;95744.16;;;21.62;48.07
78582;BME280;67878;46.242;5.974;2023-11-19T12:45:21;95748.47;;;21.63;48.44
78582;BME280;67878;46.242;5.974;2023-11-19T12:47:49;95749.13;;;21.65;48.12
78582;BME280;67878;46.242;5.974;2023-11-19T12:50:17;95745.66;;;21.65;47.99
78582;BME280;67878;46.242;5.974;2023-11-19T12:52:55;95736.78;;;21.66;48.01
78582;BME280;67878;46.242;5.974;2023-11-19T12:55:28;95744.50;;;21.67;47.99
78582;BME280;67878;46.242;5.974;2023-11-19T12:57:54;95733.16;;;21.67;48.03
78582;BME280;67878;46.242;5.974;2023-11-19T13:00:24;95735.81;;;21.67;47.84
78582;BME280;67878;46.242;5.974;2023-11-19T13:02:55;95729.53;;;21.68;47.90
78582;BME280;67878;46.242;5.974;2023-11-19T13:05:32;95735.66;;;21.68;47.84
78582;BME280;67878;46.242;5.974;2023-11-19T13:07:59;95731.03;;;21.70;47.96
78582;BME280;67878;46.242;5.974;2023-11-19T13:10:28;95727.59;;;21.70;47.93
78582;BME280;67878;46.242;5.974;2023-11-19T13:13:04;95728.41;;;21.70;47.83